Time;durP1;ratioP1;P1;durP2;ratioP2;P2;SDS_P1;SDS_P2;PMS_P1;PMS_P2;Temp;Humidity;BMP_temperature;BMP_pressure;BME280_temperature;BME280_humidity;BME280_pressure;Samples;Min_cycle;Max_cycle;Signal;HPM_P1;HPM_P2
2022/06/02 00:01:30;;;;;;;0.80;0.60;;;20.80;60.10;;;;;;5073217;28;20091;-61
2022/06/02 00:04:00;;;;;;;1.70;0.70;;;20.80;60.10;;;;;;5072129;28;20044;-62
2022/06/02 00:06:56;;;;;;;1.08;0.50;;;20.70;60.10;;;;;;5071900;28;20465;-61
2022/06/02 00:09:40;;;;;;;1.10;0.60;;;20.70;60.00;;;;;;5070500;28;20056;-62
2022/06/02 00:12:08;;;;;;;2.00;0.57;;;20.70;60.10;;;;;;5073303;28;20053;-62
2022/06/02 00:14:47;;;;;;;1.83;0.50;;;20.80;60.10;;;;;;5072693;28;20045;-62
2022/06/02 00:17:28;;;;;;;1.75;0.70;;;20.70;60.10;;;;;;5072175;28;20127;-62
2022/06/02 00:20:08;;;;;;;0.98;0.50;;;20.70;60.10;;;;;;5072615;28;20044;-62
2022/06/02 00:23:07;;;;;;;1.52;0.68;;;20.70;60.10;;;;;;5071377;28;20170;-62
2022/06/02 00:25:39;;;;;;;1.35;0.60;;;20.70;60.10;;;;;;5072356;28;20041;-62
2022/06/02 00:28:19;;;;;;;1.50;0.65;;;20.70;60.10;;;;;;5071576;28;20083;-62
2022/06/02 00:30:49;;;;;;;2.25;0.50;;;20.70;60.10;;;;;;5071849;28;20051;-62
2022/06/02 00:33:44;;;;;;;1.50;0.60;;;20.70;60.20;;;;;;5071976;28;20045;-62
2022/06/02 00:36:21;;;;;;;0.88;0.60;;;20.70;60.20;;;;;;5071680;28;20046;-62
2022/06/02 00:38:47;;;;;;;1.75;0.65;;;20.70;60.20;;;;;;5070861;28;20044;-62
2022/06/02 00:41:20;;;;;;;1.55;0.70;;;20.70;60.20;;;;;;5072397;28;20499;-62
2022/06/02 00:44:20;;;;;;;1.88;0.68;;;20.60;60.10;;;;;;5071348;28;20036;-62
2022/06/02 00:47:01;;;;;;;1.48;0.60;;;20.60;60.20;;;;;;5051847;28;20057;-62
2022/06/02 00:50:03;;;;;;;2.13;0.70;;;20.60;60.20;;;;;;5072297;28;20041;-62
2022/06/02 00:52:30;;;;;;;0.90;0.65;;;20.60;60.00;;;;;;5059998;28;20113;-62
2022/06/02 00:58:09;;;;;;;2.42;0.70;;;20.60;60.10;;;;;;5072385;28;20295;-62
2022/06/02 01:01:08;;;;;;;1.55;0.65;;;20.60;60.10;;;;;;5071852;28;20078;-61
2022/06/02 01:03:46;;;;;;;0.95;0.60;;;20.60;60.10;;;;;;5068447;28;20124;-62
2022/06/02 01:06:23;;;;;;;1.63;0.60;;;20.60;60.10;;;;;;5071371;28;20048;-62
2022/06/02 01:09:20;;;;;;;0.80;0.50;;;20.60;60.10;;;;;;5072109;28;20052;-62
2022/06/02 01:12:09;;;;;;;1.23;0.60;;;20.60;60.20;;;;;;5070793;28;20044;-62
2022/06/02 01:14:56;;;;;;;3.30;1.05;;;20.60;60.10;;;;;;5070654;28;20051;-62
2022/06/02 01:17:51;;;;;;;1.35;0.60;;;20.60;60.10;;;;;;5072477;28;20040;-62
2022/06/02 01:20:32;;;;;;;2.05;0.80;;;20.50;60.00;;;;;;5071209;28;20510;-62
2022/06/02 01:23:18;;;;;;;1.50;0.70;;;20.60;60.10;;;;;;5071884;28;20473;-62
2022/06/02 01:26:09;;;;;;;2.13;0.80;;;20.50;60.10;;;;;;5071586;28;20097;-62
2022/06/02 01:28:55;;;;;;;1.85;0.70;;;20.50;60.00;;;;;;5075605;28;20048;-62
2022/06/02 01:31:42;;;;;;;1.42;0.68;;;20.50;60.00;;;;;;5076136;28;20435;-62
2022/06/02 01:34:27;;;;;;;1.95;0.60;;;20.50;60.70;;;;;;5075162;28;20507;-62
2022/06/02 01:37:21;;;;;;;2.05;0.60;;;20.50;60.10;;;;;;5076762;28;20101;-62
2022/06/02 01:40:04;;;;;;;1.90;0.73;;;20.50;60.00;;;;;;5074704;28;20056;-62
2022/06/02 01:42:56;;;;;;;1.75;0.70;;;20.50;60.10;;;;;;5075282;28;20048;-61
2022/06/02 01:45:38;;;;;;;0.88;0.50;;;20.50;60.00;;;;;;5074681;28;20056;-62
2022/06/02 01:48:04;;;;;;;1.13;0.60;;;20.50;60.00;;;;;;5073588;28;20041;-61
2022/06/02 01:50:52;;;;;;;1.85;0.60;;;20.40;60.00;;;;;;5075967;28;20625;-62
2022/06/02 01:53:36;;;;;;;;;;;20.40;59.90;;;;;;5075198;28;20048;-62
2022/06/02 01:56:06;;;;;;;0.98;0.70;;;20.40;59.90;;;;;;5074829;28;19927;-62
2022/06/02 01:58:55;;;;;;;1.10;0.55;;;20.40;60.00;;;;;;5057975;28;20496;-62
2022/06/02 02:01:52;;;;;;;1.15;0.60;;;20.40;60.00;;;;;;5057526;28;20037;-62
2022/06/02 02:04:50;;;;;;;1.67;0.73;;;20.40;60.00;;;;;;5074507;28;20048;-62
2022/06/02 02:07:25;;;;;;;3.47;1.10;;;20.40;59.90;;;;;;5074292;28;20048;-61
2022/06/02 02:10:00;;;;;;;1.30;0.60;;;20.40;60.00;;;;;;5072955;28;20127;-62
2022/06/02 02:13:03;;;;;;;1.02;0.52;;;20.40;60.00;;;;;;5058462;28;20060;-62
2022/06/02 02:15:56;;;;;;;0.70;0.47;;;20.40;60.00;;;;;;5075323;28;20470;-62
2022/06/02 02:18:37;;;;;;;0.80;0.60;;;20.40;60.00;;;;;;5075286;28;20045;-62
2022/06/02 02:21:23;;;;;;;1.08;0.57;;;20.40;60.00;;;;;;5073296;28;20080;-62
2022/06/02 02:24:07;;;;;;;0.95;0.63;;;20.40;60.00;;;;;;5073242;28;20063;-62
2022/06/02 02:26:36;;;;;;;1.50;0.70;;;20.40;60.00;;;;;;5074299;28;20037;-62
2022/06/02 02:29:20;;;;;;;1.42;0.63;;;20.40;60.00;;;;;;5055796;28;20076;-62
2022/06/02 02:32:11;;;;;;;2.35;0.65;;;20.30;60.00;;;;;;5072762;28;20041;-62
2022/06/02 02:34:45;;;;;;;1.17;0.60;;;20.30;60.00;;;;;;5072715;28;20131;-62
2022/06/02 02:37:17;;;;;;;1.67;0.50;;;20.30;60.00;;;;;;5055758;28;20044;-62
2022/06/02 02:40:09;;;;;;;1.75;0.80;;;20.30;59.90;;;;;;5073421;28;20048;-62
2022/06/02 02:42:51;;;;;;;2.30;0.60;;;20.40;60.00;;;;;;5072664;28;20175;-62
2022/06/02 02:45:32;;;;;;;0.93;0.50;;;20.30;59.90;;;;;;5071874;28;20047;-62
2022/06/02 02:48:07;;;;;;;0.75;0.60;;;20.30;59.80;;;;;;5072070;28;20541;-62
2022/06/02 02:50:34;;;;;;;1.08;0.68;;;20.30;59.80;;;;;;5073509;28;20051;-62
2022/06/02 02:53:12;;;;;;;1.15;0.57;;;20.30;59.80;;;;;;5072431;28;20082;-62
2022/06/02 02:55:39;;;;;;;;;;;20.30;59.70;;;;;;5073113;28;20040;-62
2022/06/02 02:58:16;;;;;;;2.00;0.50;;;20.30;59.60;;;;;;5072143;28;19924;-61
2022/06/02 03:01:04;;;;;;;1.90;0.80;;;20.30;59.80;;;;;;5072011;28;20042;-62
2022/06/02 03:04:02;;;;;;;0.82;0.50;;;20.30;59.80;;;;;;5072843;28;20117;-62
2022/06/02 03:06:31;;;;;;;0.57;0.57;;;20.30;59.80;;;;;;5071588;28;20377;-62
2022/06/02 03:09:00;;;;;;;1.17;0.60;;;20.30;59.90;;;;;;5072195;28;20154;-62
2022/06/02 03:11:51;;;;;;;1.25;0.70;;;20.30;60.00;;;;;;5073653;28;20093;-62
2022/06/02 03:14:45;;;;;;;1.70;0.47;;;20.40;60.10;;;;;;5055443;28;20511;-62
2022/06/02 03:17:22;;;;;;;1.05;0.50;;;20.40;59.90;;;;;;5073197;28;20401;-62
2022/06/02 03:20:08;;;;;;;1.13;0.70;;;20.30;60.00;;;;;;5070809;28;20037;-62
2022/06/02 03:22:50;;;;;;;0.80;0.60;;;20.40;60.00;;;;;;5035665;28;1049972;-61
2022/06/02 03:25:26;;;;;;;1.00;0.52;;;20.40;60.00;;;;;;5073028;28;20045;-61
2022/06/02 03:28:13;;;;;;;1.05;0.70;;;20.40;60.00;;;;;;5071388;28;20052;-62
2022/06/02 03:30:53;;;;;;;1.60;0.50;;;20.40;60.00;;;;;;5074065;28;20052;-62
2022/06/02 03:33:43;;;;;;;1.85;0.70;;;20.40;60.00;;;;;;5073746;28;20047;-62
2022/06/02 03:36:38;;;;;;;0.60;0.50;;;20.40;60.00;;;;;;5073777;28;20037;-62
2022/06/02 03:39:08;;;;;;;1.38;0.60;;;20.40;60.00;;;;;;5071956;28;20036;-62
2022/06/02 03:41:34;;;;;;;1.42;0.60;;;20.40;59.90;;;;;;5072645;28;20052;-62
2022/06/02 03:44:30;;;;;;;1.38;0.77;;;20.40;59.90;;;;;;5073631;28;20055;-62
2022/06/02 03:47:02;;;;;;;1.20;0.60;;;20.40;59.90;;;;;;5073396;28;20162;-62
2022/06/02 03:49:49;;;;;;;1.67;0.57;;;20.40;59.90;;;;;;5071121;28;20044;-62
2022/06/02 03:52:45;;;;;;;0.82;0.50;;;20.40;59.90;;;;;;5073722;28;20051;-62
2022/06/02 03:55:27;;;;;;;0.70;0.50;;;20.50;59.90;;;;;;5071635;28;20060;-62
2022/06/02 03:58:04;;;;;;;1.42;0.70;;;20.50;59.90;;;;;;5056874;28;20165;-62
2022/06/02 04:00:40;;;;;;;1.53;0.80;;;20.50;59.90;;;;;;5072029;28;20041;-62
2022/06/02 04:03:06;;;;;;;1.00;0.60;;;20.50;59.80;;;;;;5067544;28;20041;-62
2022/06/02 04:05:52;;;;;;;0.70;0.50;;;20.50;59.80;;;;;;5052771;28;20037;-62
2022/06/02 04:08:30;;;;;;;1.33;0.70;;;20.50;59.80;;;;;;5051321;28;20489;-62
2022/06/02 04:11:21;;;;;;;1.33;0.50;;;20.50;59.90;;;;;;5051716;28;20055;-62
2022/06/02 04:13:57;;;;;;;1.75;0.75;;;20.50;59.80;;;;;;5052229;28;20076;-62
2022/06/02 04:16:45;;;;;;;0.90;0.60;;;20.60;59.90;;;;;;5052410;28;20132;-62
2022/06/02 04:22:21;;;;;;;0.98;0.68;;;20.60;59.90;;;;;;5052450;28;20413;-62
2022/06/02 04:25:33;;;;;;;1.45;0.55;;;20.60;59.80;;;;;;5051276;28;20165;-62
2022/06/02 04:28:17;;;;;;;1.40;0.80;;;20.60;59.80;;;;;;5005832;28;20044;-62
2022/06/02 04:30:46;;;;;;;0.80;0.80;;;20.60;59.70;;;;;;5050620;28;20033;-62
2022/06/02 04:33:27;;;;;;;;;;;20.60;59.70;;;;;;5051806;28;20562;-62
2022/06/02 04:36:08;;;;;;;1.02;0.60;;;20.60;59.60;;;;;;5051162;28;19920;-62
2022/06/02 04:38:49;;;;;;;0.80;0.60;;;20.60;59.70;;;;;;5050988;28;20067;-62
2022/06/02 04:41:20;;;;;;;0.93;0.70;;;20.70;59.90;;;;;;5053036;28;20131;-62
2022/06/02 04:44:11;;;;;;;0.93;0.55;;;20.70;59.60;;;;;;5050592;28;20045;-62
2022/06/02 04:46:42;;;;;;;0.73;0.60;;;20.70;59.70;;;;;;5051500;28;20132;-62
2022/06/02 04:49:30;;;;;;;1.30;0.60;;;20.70;59.60;;;;;;5051614;28;20045;-61
2022/06/02 04:52:01;;;;;;;1.00;0.70;;;20.70;59.60;;;;;;5050694;28;20037;-62
2022/06/02 04:54:32;;;;;;;0.93;0.60;;;20.70;59.60;;;;;;5051012;28;20052;-62
2022/06/02 04:57:01;;;;;;;2.00;0.75;;;20.70;59.60;;;;;;5050851;28;20412;-61
2022/06/02 04:59:33;;;;;;;1.33;0.60;;;20.70;59.60;;;;;;5050485;28;20448;-62
2022/06/02 05:02:32;;;;;;;0.77;0.68;;;20.80;59.70;;;;;;5051579;28;20052;-62
2022/06/02 05:05:26;;;;;;;0.70;0.60;;;20.80;59.70;;;;;;5047109;28;20137;-62
2022/06/02 05:08:07;;;;;;;1.27;0.70;;;20.80;59.70;;;;;;5052105;28;20048;-62
2022/06/02 05:11:01;;;;;;;1.15;0.70;;;20.80;59.60;;;;;;5052169;28;20049;-62
2022/06/02 05:13:45;;;;;;;1.83;0.75;;;20.80;59.60;;;;;;5045685;28;20053;-62
2022/06/02 05:16:32;;;;;;;0.82;0.50;;;20.80;59.60;;;;;;5052069;28;20126;-62
2022/06/02 05:19:29;;;;;;;0.80;0.57;;;20.80;59.60;;;;;;5050138;28;20055;-62
2022/06/02 05:22:18;;;;;;;1.25;0.68;;;20.80;59.60;;;;;;5051669;28;20061;-62
2022/06/02 05:25:06;;;;;;;0.80;0.80;;;20.90;59.70;;;;;;5052649;28;20041;-62
2022/06/02 05:28:00;;;;;;;1.38;0.60;;;20.90;59.70;;;;;;5051138;28;20462;-61
2022/06/02 05:30:42;;;;;;;1.20;0.68;;;20.90;59.70;;;;;;5024974;28;20102;-62
2022/06/02 05:33:27;;;;;;;2.00;0.70;;;20.90;59.70;;;;;;5050193;28;20077;-62
2022/06/02 05:36:00;;;;;;;1.20;0.77;;;20.90;59.70;;;;;;5051418;28;20041;-61
2022/06/02 05:38:31;;;;;;;1.10;0.80;;;20.90;59.70;;;;;;5051064;28;20516;-63
2022/06/02 05:41:27;;;;;;;1.90;0.70;;;20.90;59.90;;;;;;5051093;28;20052;-62
2022/06/02 05:44:32;;;;;;;1.70;0.50;;;21.00;60.20;;;;;;5029562;28;20135;-63
2022/06/02 05:47:31;;;;;;;2.63;0.80;;;21.00;60.40;;;;;;5050990;28;20515;-61
2022/06/02 05:49:59;;;;;;;2.15;0.60;;;21.00;60.50;;;;;;5050617;28;20091;-61
2022/06/02 05:52:29;;;;;;;;;;;21.00;60.50;;;;;;5052361;28;20475;-62
2022/06/02 05:55:19;;;;;;;1.95;0.77;;;21.00;60.50;;;;;;5049693;28;19921;-62
2022/06/02 05:58:11;;;;;;;2.75;0.60;;;21.10;60.70;;;;;;5051459;28;20499;-63
2022/06/02 06:00:41;;;;;;;3.05;0.70;;;21.10;60.70;;;;;;5028181;28;20156;-60
2022/06/02 06:03:06;;;;;;;5.97;0.90;;;21.10;60.70;;;;;;5050134;28;20057;-63
2022/06/02 06:05:41;;;;;;;1.05;0.63;;;21.10;60.50;;;;;;5056160;28;20392;-64
2022/06/02 06:08:17;;;;;;;2.90;0.68;;;21.10;60.60;;;;;;5070432;28;20084;-64
2022/06/02 06:10:54;;;;;;;1.23;0.70;;;21.10;60.60;;;;;;5070179;28;20044;-64
2022/06/02 06:13:44;;;;;;;2.45;0.70;;;21.10;60.50;;;;;;5072335;28;20037;-64
2022/06/02 06:16:31;;;;;;;1.73;0.80;;;21.10;60.50;;;;;;5057046;28;20044;-64
2022/06/02 06:19:03;;;;;;;1.17;0.70;;;21.10;60.50;;;;;;5074091;28;20059;-64
2022/06/02 06:21:28;;;;;;;2.38;0.80;;;21.20;60.60;;;;;;5073487;28;20190;-64
2022/06/02 06:24:09;;;;;;;2.28;0.80;;;21.20;60.70;;;;;;5072751;28;20131;-64
2022/06/02 06:26:51;;;;;;;2.05;0.90;;;21.20;60.70;;;;;;5074734;28;20045;-63
2022/06/02 06:29:32;;;;;;;4.95;1.00;;;21.20;60.70;;;;;;5070845;28;20084;-62
2022/06/02 06:32:00;;;;;;;4.50;1.10;;;21.20;60.70;;;;;;5074751;28;20047;-64
2022/06/02 06:34:46;;;;;;;4.10;0.80;;;21.20;60.80;;;;;;5073341;28;20053;-64
2022/06/02 06:38:10;;;;;;;1.63;1.10;;;21.20;61.00;;;;;;5074263;28;20156;-64
2022/06/02 06:40:42;;;;;;;2.42;0.85;;;21.20;61.00;;;;;;4976742;28;20058;-62
2022/06/02 06:43:51;;;;;;;2.65;0.70;;;21.20;61.10;;;;;;4992960;28;20050;-63
2022/06/02 06:46:24;;;;;;;2.10;0.90;;;21.20;61.00;;;;;;4993462;28;20062;-64
2022/06/02 06:48:54;;;;;;;2.03;0.90;;;21.20;61.20;;;;;;5064796;28;20135;-62
2022/06/02 06:51:44;;;;;;;1.55;0.63;;;21.20;61.10;;;;;;5072677;28;20048;-62
2022/06/02 06:54:39;;;;;;;5.43;0.98;;;21.20;61.20;;;;;;5074671;28;20040;-61
2022/06/02 06:57:26;;;;;;;2.72;0.80;;;21.20;61.20;;;;;;5044604;28;20048;-60
2022/06/02 07:00:06;;;;;;;1.67;0.70;;;21.20;61.10;;;;;;5072805;28;20067;-61
2022/06/02 07:02:54;;;;;;;2.00;0.70;;;21.20;61.00;;;;;;5073256;28;20045;-63
2022/06/02 07:05:22;;;;;;;1.75;0.90;;;21.20;61.00;;;;;;5035434;28;20060;-63
2022/06/02 07:07:57;;;;;;;1.45;1.00;;;21.20;61.10;;;;;;5074179;28;20048;-63
2022/06/02 07:10:41;;;;;;;2.55;0.90;;;21.20;61.10;;;;;;5073962;28;20091;-64
2022/06/02 07:13:07;;;;;;;5.55;1.10;;;21.30;61.10;;;;;;5055759;28;20409;-64
2022/06/02 07:16:01;;;;;;;2.35;0.85;;;21.20;61.00;;;;;;5074011;28;20102;-62
2022/06/02 07:18:36;;;;;;;2.30;0.65;;;21.20;61.00;;;;;;5055698;28;20122;-64
2022/06/02 07:21:46;;;;;;;3.17;0.70;;;21.30;61.10;;;;;;5073392;28;20064;-64
2022/06/02 07:24:18;;;;;;;2.63;0.90;;;21.30;60.90;;;;;;5040412;28;20476;-64
2022/06/02 07:26:51;;;;;;;2.25;0.70;;;21.20;61.40;;;;;;5072979;28;20041;-64
2022/06/02 07:29:42;;;;;;;1.25;0.60;;;21.20;60.70;;;;;;5072445;28;20581;-64
2022/06/02 07:32:38;;;;;;;2.45;0.68;;;21.30;60.80;;;;;;5072791;28;20051;-64
2022/06/02 07:35:25;;;;;;;1.10;0.60;;;21.30;60.70;;;;;;5073441;28;20052;-64
2022/06/02 07:38:11;;;;;;;1.60;0.73;;;21.30;60.70;;;;;;5072383;28;20512;-64
2022/06/02 07:40:57;;;;;;;2.65;0.80;;;21.30;60.60;;;;;;5072758;28;20049;-64
2022/06/02 07:44:01;;;;;;;1.85;0.80;;;21.30;60.60;;;;;;5073656;28;20123;-64
2022/06/02 07:46:46;;;;;;;3.08;0.60;;;21.30;60.50;;;;;;5042610;28;20049;-65
2022/06/02 07:49:23;;;;;;;3.42;1.05;;;21.30;60.50;;;;;;5072486;28;20053;-64
2022/06/02 07:51:51;;;;;;;2.58;0.73;;;21.30;60.50;;;;;;5072848;28;20381;-64
2022/06/02 07:54:23;;;;;;;2.17;0.80;;;21.30;60.20;;;;;;5072889;28;20048;-64
2022/06/02 07:57:25;;;;;;;2.95;0.70;;;21.30;60.00;;;;;;5070557;28;20686;-61
2022/06/02 08:00:19;;;;;;;3.10;1.02;;;21.30;59.40;;;;;;5018424;28;20061;-64
2022/06/02 08:03:22;;;;;;;6.07;1.10;;;21.30;59.00;;;;;;5071447;28;20048;-64
2022/06/02 08:06:26;;;;;;;5.40;1.20;;;21.20;58.10;;;;;;5071548;28;20071;-64
2022/06/02 08:09:11;;;;;;;4.43;0.80;;;21.20;57.90;;;;;;5072196;28;20048;-64
2022/06/02 08:11:55;;;;;;;4.28;1.20;;;21.20;57.90;;;;;;5051243;28;20103;-64
2022/06/02 08:14:27;;;;;;;2.90;0.65;;;21.20;57.00;;;;;;5051362;28;20515;-65
2022/06/02 08:16:56;;;;;;;2.28;0.80;;;21.20;57.20;;;;;;5050681;28;20053;-64
2022/06/02 08:19:40;;;;;;;4.70;0.80;;;21.20;57.00;;;;;;5051810;28;20037;-65
2022/06/02 08:22:08;;;;;;;2.00;0.85;;;21.20;57.10;;;;;;5052026;28;20052;-66
2022/06/02 08:24:36;;;;;;;2.70;0.77;;;21.20;57.10;;;;;;5051876;28;20076;-65
2022/06/02 08:27:38;;;;;;;2.67;0.70;;;21.20;57.10;;;;;;5052503;28;20059;-62
2022/06/02 08:30:18;;;;;;;4.38;0.82;;;21.20;57.20;;;;;;5050598;28;20045;-65
2022/06/02 08:32:56;;;;;;;4.05;1.30;;;21.20;57.20;;;;;;5051149;28;20044;-65
2022/06/02 08:35:44;;;;;;;5.35;1.33;;;21.20;57.30;;;;;;5052284;28;20044;-65
2022/06/02 08:38:30;;;;;;;10.70;2.13;;;21.20;57.40;;;;;;5041340;28;20041;-65
2022/06/02 08:41:01;;;;;;;10.07;2.47;;;21.30;57.50;;;;;;5051386;28;20049;-64
2022/06/02 08:43:47;;;;;;;8.35;1.98;;;21.20;57.50;;;;;;5051677;28;20550;-65
2022/06/02 08:46:37;;;;;;;9.30;2.38;;;21.30;57.60;;;;;;5071151;28;20040;-64
2022/06/02 08:49:21;;;;;;;9.40;2.05;;;21.30;57.80;;;;;;5071401;28;20051;-62
2022/06/02 08:52:09;;;;;;;13.10;2.45;;;21.30;58.00;;;;;;5070387;28;20052;-63
2022/06/02 08:54:56;;;;;;;6.83;2.10;;;21.30;58.40;;;;;;5071358;28;20557;-64
2022/06/02 08:57:59;;;;;;;6.45;2.17;;;21.30;58.70;;;;;;5071474;28;20511;-64
2022/06/02 09:00:55;;;;;;;9.30;2.50;;;21.30;58.80;;;;;;5072073;28;20048;-64
2022/06/02 09:03:38;;;;;;;6.20;1.80;;;21.40;58.80;;;;;;5072135;28;20045;-63
2022/06/02 09:06:26;;;;;;;9.30;2.25;;;21.40;58.70;;;;;;5071129;28;20056;-63
2022/06/02 09:09:01;;;;;;;8.98;2.45;;;21.50;58.80;;;;;;5073292;28;20037;-63
2022/06/02 09:11:47;;;;;;;9.15;2.30;;;21.50;58.80;;;;;;5071518;28;20041;-62
2022/06/02 09:14:31;;;;;;;6.93;2.13;;;21.40;58.70;;;;;;5071046;28;20059;-65
2022/06/02 09:17:07;;;;;;;10.77;2.30;;;21.40;58.80;;;;;;5070692;28;20503;-63
2022/06/02 09:19:38;;;;;;;8.57;2.25;;;21.50;58.70;;;;;;5071488;28;20048;-63
2022/06/02 09:22:10;;;;;;;6.13;1.88;;;21.50;59.40;;;;;;5071236;28;20060;-63
2022/06/02 09:25:12;;;;;;;8.57;2.10;;;21.50;58.70;;;;;;5071290;28;20041;-63
2022/06/02 09:27:47;;;;;;;7.68;2.05;;;21.50;58.80;;;;;;5038553;28;20182;-64
2022/06/02 09:30:12;;;;;;;11.55;2.20;;;21.50;58.80;;;;;;5070003;28;20052;-65
2022/06/02 09:33:33;;;;;;;7.10;2.28;;;21.50;58.80;;;;;;5068022;28;20036;-67
2022/06/02 09:35:59;;;;;;;6.40;1.95;;;21.50;58.80;;;;;;5069133;28;20052;-64
2022/06/02 09:38:42;;;;;;;4.63;1.80;;;21.50;59.10;;;;;;5071465;28;20051;-62
2022/06/02 09:41:25;;;;;;;5.18;1.85;;;21.50;59.90;;;;;;5070110;28;20052;-61
2022/06/02 09:44:04;;;;;;;5.22;2.08;;;21.50;59.10;;;;;;5070300;28;20518;-61
2022/06/02 09:46:54;;;;;;;5.57;1.70;;;21.50;59.20;;;;;;5070098;28;20041;-63
2022/06/02 09:49:38;;;;;;;6.50;2.00;;;21.60;59.40;;;;;;5074555;28;20040;-64
2022/06/02 09:52:39;;;;;;;7.00;1.80;;;21.60;59.40;;;;;;5075157;28;20043;-62
2022/06/02 09:55:07;;;;;;;8.57;1.88;;;21.60;59.20;;;;;;5072749;28;20488;-61
2022/06/02 09:57:57;;;;;;;3.78;1.50;;;21.60;59.30;;;;;;5075741;28;20119;-63
2022/06/02 10:00:50;;;;;;;4.90;1.58;;;21.60;59.30;;;;;;5076020;28;20048;-63
2022/06/02 10:03:45;;;;;;;5.18;1.60;;;21.60;59.10;;;;;;5075785;28;20045;-61
2022/06/02 10:06:30;;;;;;;6.05;1.90;;;21.60;59.10;;;;;;5071181;28;20041;-62
2022/06/02 10:09:17;;;;;;;4.20;1.27;;;21.60;59.30;;;;;;5075322;28;20056;-61
2022/06/02 10:11:53;;;;;;;7.03;2.08;;;21.60;59.40;;;;;;5075132;28;20399;-61
2022/06/02 10:14:46;;;;;;;5.90;1.58;;;21.60;59.30;;;;;;5073056;28;20059;-60
2022/06/02 10:17:48;;;;;;;6.25;1.65;;;21.60;59.70;;;;;;5074074;28;20052;-62
2022/06/02 10:20:45;;;;;;;6.47;1.80;;;21.70;59.70;;;;;;5072528;28;20571;-62
2022/06/02 10:23:55;;;;;;;5.93;1.45;;;21.70;59.40;;;;;;5056628;28;20131;-62
2022/06/02 10:26:39;;;;;;;4.30;1.40;;;21.70;59.30;;;;;;5074238;28;20052;-62
2022/06/02 10:29:32;;;;;;;3.40;1.30;;;21.60;59.20;;;;;;5073574;28;20049;-62
2022/06/02 10:32:17;;;;;;;4.03;1.25;;;21.70;59.30;;;;;;5074467;28;20052;-62
2022/06/02 10:35:00;;;;;;;5.22;1.30;;;21.70;59.30;;;;;;5074092;28;20062;-62
2022/06/02 10:37:55;;;;;;;7.05;1.80;;;21.70;59.30;;;;;;5074326;28;20388;-62
2022/06/02 10:40:59;;;;;;;8.07;1.75;;;21.70;59.30;;;;;;5073826;28;20127;-62
2022/06/02 10:43:52;;;;;;;2.88;1.40;;;21.70;59.30;;;;;;5074480;28;20052;-63
2022/06/02 10:46:42;;;;;;;2.63;1.30;;;21.70;59.30;;;;;;5074322;28;20373;-62
2022/06/02 10:49:18;;;;;;;4.72;1.30;;;21.60;58.90;;;;;;5074647;28;20044;-62
2022/06/02 10:52:05;;;;;;;3.17;1.17;;;21.60;59.30;;;;;;5074225;28;20048;-63
2022/06/02 10:54:46;;;;;;;7.28;1.30;;;21.60;58.50;;;;;;5074487;28;20044;-63
2022/06/02 10:57:36;;;;;;;2.78;1.10;;;21.60;58.40;;;;;;5072106;28;20044;-63
2022/06/02 11:00:29;;;;;;;3.72;1.20;;;21.60;58.30;;;;;;5073794;28;20544;-63
2022/06/02 11:03:24;;;;;;;2.00;1.05;;;21.50;57.90;;;;;;5073697;28;20044;-62
2022/06/02 11:06:28;;;;;;;4.75;1.00;;;21.50;57.80;;;;;;5072478;28;20127;-62
2022/06/02 11:09:18;;;;;;;2.88;1.13;;;21.50;57.70;;;;;;5073946;28;20056;-62
2022/06/02 11:12:21;;;;;;;3.13;0.88;;;21.50;57.60;;;;;;5073444;28;20515;-58
2022/06/02 11:15:05;;;;;;;4.82;1.10;;;21.50;57.40;;;;;;5073736;28;20040;-60
2022/06/02 11:17:51;;;;;;;3.60;1.13;;;21.50;57.50;;;;;;5073011;28;20040;-61
2022/06/02 11:21:14;;;;;;;4.82;1.08;;;21.50;57.40;;;;;;5106887;28;20051;-61
2022/06/02 11:23:45;;;;;;;2.17;1.00;;;21.50;57.30;;;;;;5030712;28;20053;-61
2022/06/02 11:26:25;;;;;;;3.35;1.10;;;21.50;57.30;;;;;;5030954;28;20099;-66
2022/06/02 11:29:10;;;;;;;2.70;0.90;;;21.60;57.40;;;;;;5059157;28;20080;-61
2022/06/02 11:32:13;;;;;;;4.22;0.90;;;21.60;57.50;;;;;;5072754;28;20040;-60
2022/06/02 11:34:52;;;;;;;2.95;1.13;;;21.60;57.40;;;;;;5071046;28;20062;-60
2022/06/02 11:37:36;;;;;;;1.85;0.88;;;21.60;57.30;;;;;;5067199;28;20060;-60
2022/06/02 11:40:41;;;;;;;3.45;1.02;;;21.60;57.30;;;;;;5072272;28;20044;-60
2022/06/02 11:43:24;;;;;;;2.25;0.80;;;21.60;57.20;;;;;;5073613;28;20098;-60
2022/06/02 11:46:18;;;;;;;4.30;1.17;;;21.60;57.10;;;;;;5072705;28;20518;-59
2022/06/02 11:49:14;;;;;;;3.03;1.45;;;21.60;57.00;;;;;;5073192;28;20063;-59
2022/06/02 11:51:58;;;;;;;2.63;0.90;;;21.60;57.10;;;;;;5073084;28;20040;-59
2022/06/02 11:54:47;;;;;;;2.15;0.90;;;21.60;57.10;;;;;;5073153;28;20045;-59
2022/06/02 11:57:16;;;;;;;3.88;1.83;;;21.60;57.00;;;;;;5065556;28;20147;-59
2022/06/02 12:00:13;;;;;;;2.97;0.90;;;21.60;56.90;;;;;;5072751;28;20044;-60
2022/06/02 12:02:57;;;;;;;2.10;0.70;;;21.60;56.40;;;;;;5056410;28;20083;-59
2022/06/02 12:05:43;;;;;;;1.90;0.82;;;21.60;56.60;;;;;;5072780;28;20613;-60
2022/06/02 12:08:43;;;;;;;2.55;0.90;;;21.60;56.50;;;;;;5072586;28;20048;-60
2022/06/02 12:11:33;;;;;;;3.55;1.00;;;21.70;56.50;;;;;;5071245;28;20091;-60
2022/06/02 12:14:21;;;;;;;2.25;0.80;;;21.70;56.40;;;;;;5070824;28;20500;-60
2022/06/02 12:16:51;;;;;;;3.22;1.00;;;21.70;56.70;;;;;;5071617;28;20051;-61
2022/06/02 12:19:44;;;;;;;3.90;0.80;;;21.70;56.80;;;;;;5071772;28;20181;-61
2022/06/02 12:22:19;;;;;;;4.75;1.08;;;21.70;56.90;;;;;;5071943;28;20075;-61
2022/06/02 12:24:57;;;;;;;2.10;0.73;;;21.70;57.10;;;;;;5072678;28;20067;-60
2022/06/02 12:27:32;;;;;;;3.25;0.80;;;21.70;57.00;;;;;;5055787;28;20097;-61
2022/06/02 12:30:14;;;;;;;2.95;0.77;;;21.80;57.30;;;;;;5069091;28;20494;-60
2022/06/02 12:32:57;;;;;;;2.67;0.70;;;21.70;57.30;;;;;;5072141;28;20081;-59
2022/06/02 12:35:48;;;;;;;3.38;0.90;;;21.70;57.40;;;;;;5065691;28;20136;-60
2022/06/02 12:38:20;;;;;;;1.52;0.80;;;21.80;57.70;;;;;;5069833;28;20044;-59
2022/06/02 12:41:27;;;;;;;3.80;1.17;;;21.80;57.80;;;;;;5071255;28;20397;-60
2022/06/02 12:43:53;;;;;;;2.42;0.60;;;21.80;57.80;;;;;;5050310;28;20082;-60
2022/06/02 12:46:42;;;;;;;3.05;0.80;;;21.80;57.80;;;;;;5072356;28;20133;-59
2022/06/02 12:49:39;;;;;;;4.38;0.73;;;21.80;57.80;;;;;;5066861;28;20045;-59
2022/06/02 12:52:28;;;;;;;2.78;0.95;;;21.80;57.80;;;;;;5060786;28;20488;-59
2022/06/02 12:55:17;;;;;;;1.73;0.60;;;21.90;57.80;;;;;;5070669;28;20051;-60
2022/06/02 12:58:06;;;;;;;2.65;0.65;;;21.90;57.60;;;;;;5071025;28;20146;-60
2022/06/02 13:00:33;;;;;;;3.05;0.80;;;22.00;57.50;;;;;;5071906;28;20071;-60
2022/06/02 13:03:07;;;;;;;2.97;0.63;;;21.90;57.30;;;;;;5066656;28;20048;-60
2022/06/02 13:06:02;;;;;;;1.83;0.80;;;21.90;57.10;;;;;;5069868;28;20467;-60
2022/06/02 13:08:31;;;;;;;3.70;0.60;;;21.90;56.60;;;;;;5049713;28;20110;-61
2022/06/02 13:11:32;;;;;;;3.40;0.70;;;22.00;56.80;;;;;;5071102;28;20047;-60
2022/06/02 13:14:16;;;;;;;1.55;0.70;;;22.00;56.60;;;;;;5055790;28;20128;-61
2022/06/02 13:17:04;;;;;;;4.30;0.82;;;22.00;56.70;;;;;;5069587;28;20123;-60
2022/06/02 13:19:49;;;;;;;;;;;22.00;56.90;;;;;;5071718;28;20154;-60
2022/06/02 13:22:36;;;;;;;3.70;0.70;;;22.00;57.20;;;;;;5073330;28;19920;-60
2022/06/02 13:25:01;;;;;;;2.17;0.70;;;22.00;57.40;;;;;;5075208;28;20059;-60
2022/06/02 13:27:54;;;;;;;2.60;0.82;;;22.00;57.40;;;;;;5075449;28;20038;-60
2022/06/02 13:30:47;;;;;;;3.45;0.80;;;22.00;57.50;;;;;;5075731;28;20047;-61
2022/06/02 13:33:43;;;;;;;3.15;0.80;;;22.00;57.60;;;;;;5075114;28;20123;-60
2022/06/02 13:36:19;;;;;;;3.20;0.80;;;22.00;57.70;;;;;;5074039;28;20032;-60
2022/06/02 13:38:54;;;;;;;2.38;0.68;;;22.00;57.80;;;;;;5069860;28;20052;-60
2022/06/02 13:41:46;;;;;;;2.80;0.70;;;22.00;57.90;;;;;;5072822;28;20041;-60
2022/06/02 13:44:30;;;;;;;2.42;0.95;;;22.00;58.00;;;;;;5075315;28;20492;-60
2022/06/02 13:47:36;;;;;;;1.60;0.50;;;22.00;58.10;;;;;;5074921;28;20037;-60
2022/06/02 13:50:21;;;;;;;1.17;0.60;;;22.00;58.20;;;;;;5073249;28;20040;-61
2022/06/02 13:53:01;;;;;;;3.00;0.60;;;22.00;58.30;;;;;;5074679;28;20044;-60
2022/06/02 13:58:37;;;;;;;2.35;0.80;;;22.00;58.40;;;;;;5075170;28;20041;-58
2022/06/02 14:01:34;;;;;;;1.65;0.55;;;22.10;58.30;;;;;;5052747;28;20389;-63
2022/06/02 14:04:03;;;;;;;;;;;22.10;58.40;;;;;;5062272;28;20068;-62
2022/06/02 14:06:30;;;;;;;3.58;0.80;;;22.10;58.30;;;;;;5072708;28;20364;-61
2022/06/02 14:09:16;;;;;;;2.28;0.70;;;22.10;58.20;;;;;;5070260;28;20079;-61
2022/06/02 14:12:08;;;;;;;2.70;0.68;;;22.10;58.30;;;;;;5069737;28;20840;-62
2022/06/02 14:14:55;;;;;;;5.88;0.90;;;22.10;58.40;;;;;;5074030;28;20435;-62
2022/06/02 14:17:43;;;;;;;3.70;0.80;;;22.10;58.40;;;;;;5074230;28;20626;-62
2022/06/02 14:20:16;;;;;;;2.60;0.70;;;22.10;58.50;;;;;;5074292;28;20048;-62
2022/06/02 14:23:05;;;;;;;1.00;0.50;;;22.10;58.70;;;;;;5069492;28;20049;-61
2022/06/02 14:25:34;;;;;;;2.95;0.70;;;22.10;58.80;;;;;;5063879;28;20052;-61